Terminal Aerodrome Forecast
Issued by NWS

Home | Current Version | Previous Version | Text Only | Print | Product List | Glossary On
Versions: 1 2 3 4 5 6 7 8 9 10 11 12 13 14 15 16 17 18 19 20
000
FTAK31 PAJN 230309 AAA
TAFAYA
TAF AMD
PAYA 230309Z 2303/2324 09008KT 1SM -SN BR SCT007 OVC012
      TEMPO 2303/2306 1/2SM SN VV007
     FM230600 10006KT 4SM -RASN BR BKN012 OVC020
     FM230900 04005KT P6SM -RASN OVC010
     FM231200 30004KT P6SM SCT010 BKN035 OVC080
      AMD LTD TO CLD VIS AND WIND=

USA.gov is the U.S. government's official web portal to all federal, state and local government web resources and services.